Time;durP1;ratioP1;P1;durP2;ratioP2;P2;SDS_P1;SDS_P2;PMS_P1;PMS_P2;Temp;Humidity;BMP_temperature;BMP_pressure;BME280_temperature;BME280_humidity;BME280_pressure;Samples;Min_cycle;Max_cycle;Signal;HPM_P1;HPM_P2
2022/02/17 00:00:15;;;;;;;5.18;4.97;;;;;;;12.47;86.59;98977.66;6041070;23;20022;-69
2022/02/17 00:02:44;;;;;;;4.40;4.20;;;;;;;12.46;87.37;98982.09;6021556;23;20097;-71
2022/02/17 00:05:13;;;;;;;6.80;6.20;;;;;;;12.30;86.81;98964.19;6000361;23;20022;-70
2022/02/17 00:07:39;;;;;;;4.70;4.50;;;;;;;12.43;88.13;98971.84;6035006;23;20254;-70
2022/02/17 00:10:07;;;;;;;11.73;6.25;;;;;;;12.45;89.55;98945.38;6028773;23;20018;-70
2022/02/17 00:12:35;;;;;;;4.40;4.20;;;;;;;12.36;89.06;98949.66;6011598;23;20035;-70
2022/02/17 00:15:03;;;;;;;5.82;5.53;;;;;;;12.03;89.93;98909.56;6043098;23;20039;-70
2022/02/17 00:17:29;;;;;;;4.50;4.30;;;;;;;11.79;90.32;98870.44;6008169;23;20059;-69
2022/02/17 00:19:56;;;;;;;4.93;4.72;;;;;;;12.26;91.33;98933.84;6002659;23;20577;-70
2022/02/17 00:22:22;;;;;;;4.88;4.68;;;;;;;11.51;90.16;98804.50;6016415;23;20257;-70
2022/02/17 00:24:48;;;;;;;4.30;4.10;;;;;;;12.06;89.82;98892.69;6001808;23;20033;-70
2022/02/17 00:27:16;;;;;;;4.22;4.03;;;;;;;12.07;89.34;98857.56;6023020;23;20492;-69
2022/02/17 00:29:42;;;;;;;4.55;4.35;;;;;;;12.01;89.60;98869.44;6006864;23;20098;-70
2022/02/17 00:32:09;;;;;;;6.03;5.72;;;;;;;12.12;88.45;98886.91;6037798;23;20043;-70
2022/02/17 00:34:35;;;;;;;4.28;4.07;;;;;;;11.91;87.38;98818.66;6029483;23;20038;-70
2022/02/17 00:37:05;;;;;;;5.35;5.15;;;;;;;12.18;87.48;98881.09;6020652;23;20122;-70
2022/02/17 00:39:33;;;;;;;4.10;3.90;;;;;;;12.48;87.19;98930.16;6008778;23;20078;-70
2022/02/17 00:42:01;;;;;;;4.90;4.70;;;;;;;12.49;87.58;98950.25;6037094;23;20019;-69
2022/02/17 00:44:27;;;;;;;4.30;4.10;;;;;;;11.95;86.52;98820.03;6037772;23;20018;-69
2022/02/17 00:46:57;;;;;;;5.57;5.28;;;;;;;12.49;85.89;98920.50;5965519;23;20264;-70
2022/02/17 00:49:26;;;;;;;4.15;3.95;;;;;;;11.52;86.18;98750.16;6018437;23;20018;-70
2022/02/17 00:51:53;;;;;;;4.32;4.13;;;;;;;12.50;86.22;98943.19;6020821;23;20235;-68
2022/02/17 00:54:23;;;;;;;4.10;3.90;;;;;;;12.42;87.31;98943.03;6017547;23;20026;-70
2022/02/17 00:56:50;;;;;;;4.10;3.90;;;;;;;12.26;86.55;98915.44;5996350;23;20019;-71
2022/02/17 00:59:16;;;;;;;4.60;4.40;;;;;;;12.34;86.28;98918.22;6028988;23;20231;-70
2022/02/17 01:01:46;;;;;;;4.13;3.92;;;;;;;12.36;84.07;98932.06;6028652;23;20472;-70
2022/02/17 01:04:14;;;;;;;4.38;4.18;;;;;;;12.48;81.02;98887.25;6003562;23;20081;-70
2022/02/17 01:06:41;;;;;;;4.50;4.30;;;;;;;12.01;79.54;98840.53;6002718;23;20135;-70
2022/02/17 01:09:10;;;;;;;5.22;5.03;;;;;;;12.55;80.23;98898.91;6024108;23;20095;-70
2022/02/17 01:11:39;;;;;;;4.13;3.92;;;;;;;11.64;79.52;98779.78;6027427;23;20030;-70
2022/02/17 01:14:06;;;;;;;5.88;5.63;;;;;;;12.56;79.36;98932.13;5970735;23;20023;-70
2022/02/17 01:16:33;;;;;;;4.13;3.92;;;;;;;12.36;80.57;98895.25;6006840;23;20019;-70
2022/02/17 01:19:00;;;;;;;5.53;5.32;;;;;;;11.64;81.07;98832.34;5995342;23;20350;-70
2022/02/17 01:21:30;;;;;;;4.22;4.03;;;;;;;12.29;83.66;98951.19;6002792;23;20380;-70
2022/02/17 01:24:00;;;;;;;4.75;4.55;;;;;;;12.04;85.99;98942.78;5971539;23;20019;-70
2022/02/17 01:26:27;;;;;;;4.10;3.90;;;;;;;11.89;88.58;98952.00;6028683;23;20502;-70
2022/02/17 01:28:59;;;;;;;4.10;3.90;;;;;;;11.36;88.15;98848.66;6015627;23;20011;-69
2022/02/17 01:31:26;;;;;;;4.22;4.03;;;;;;;10.78;89.04;98785.34;5997520;23;20033;-70
2022/02/17 01:33:53;;;;;;;4.30;4.10;;;;;;;11.04;88.95;98837.44;6036907;23;20424;-69
2022/02/17 01:36:20;;;;;;;4.28;4.07;;;;;;;10.28;88.68;98732.66;6023193;23;20256;-71
2022/02/17 01:38:47;;;;;;;4.20;4.00;;;;;;;11.52;86.49;98942.75;6000820;23;20050;-70
2022/02/17 01:41:16;;;;;;;4.63;4.43;;;;;;;11.18;83.77;98856.34;6030468;23;20311;-70
2022/02/17 01:43:43;;;;;;;4.10;3.90;;;;;;;11.54;84.15;98921.63;6000307;23;20012;-71
2022/02/17 01:46:13;;;;;;;5.82;5.57;;;;;;;11.55;81.10;98884.72;5999772;23;20023;-71
2022/02/17 01:48:39;;;;;;;4.05;3.85;;;;;;;11.34;80.80;98840.09;6000549;23;20014;-71
2022/02/17 01:51:06;;;;;;;5.25;5.05;;;;;;;11.92;81.00;98973.56;6017700;23;20042;-70
2022/02/17 01:53:32;;;;;;;4.20;4.00;;;;;;;11.45;79.33;98912.75;5997714;23;20446;-71
2022/02/17 01:56:01;;;;;;;4.00;3.80;;;;;;;11.99;77.72;98968.66;6037257;23;20550;-70
2022/02/17 01:58:31;;;;;;;3.95;3.80;;;;;;;11.60;76.34;98900.09;6034192;23;20035;-70
2022/02/17 02:00:57;;;;;;;4.25;4.05;;;;;;;11.73;76.38;98987.44;6029287;23;20225;-70
2022/02/17 02:03:24;;;;;;;3.95;3.80;;;;;;;12.16;74.53;99017.97;6034811;23;20031;-70
2022/02/17 02:05:51;;;;;;;4.32;4.13;;;;;;;12.22;73.60;99003.47;6012590;23;20054;-70
2022/02/17 02:08:18;;;;;;;4.40;4.20;;;;;;;12.06;74.19;99017.09;6013332;23;20017;-71
2022/02/17 02:10:47;;;;;;;4.20;4.00;;;;;;;9.66;72.66;98629.41;6034344;23;20138;-70
2022/02/17 02:13:14;;;;;;;4.93;4.72;;;;;;;11.36;72.01;98916.94;6032112;23;20468;-71
2022/02/17 02:15:52;;;;;;;4.30;4.10;;;;;;;11.56;71.31;98922.31;6016005;23;20378;-70
2022/02/17 02:18:20;;;;;;;4.43;4.22;;;;;;;12.06;70.22;99048.66;6027219;23;20007;-71
2022/02/17 02:20:48;;;;;;;4.20;4.00;;;;;;;10.89;70.80;98863.19;6020678;23;20413;-70
2022/02/17 02:23:15;;;;;;;5.40;5.10;;;;;;;11.87;71.75;99004.66;6023738;23;20266;-70
2022/02/17 02:25:47;;;;;;;4.60;4.40;;;;;;;11.89;72.27;99065.03;6000627;23;20007;-70
2022/02/17 02:28:25;;;;;;;5.23;4.93;;;;;;;11.88;71.07;99043.13;6029146;23;20459;-70
2022/02/17 02:30:52;;;;;;;4.10;3.90;;;;;;;11.94;69.03;99066.28;5985876;23;20501;-68
2022/02/17 02:33:22;;;;;;;5.95;5.68;;;;;;;11.35;69.04;98982.75;6023116;23;20394;-70
2022/02/17 02:35:53;;;;;;;4.20;4.00;;;;;;;11.81;68.79;99056.91;6021333;23;20182;-70
2022/02/17 02:38:43;;;;;;;4.43;4.22;;;;;;;11.67;67.42;99042.31;5992766;23;20016;-69
2022/02/17 02:41:11;;;;;;;5.40;5.20;;;;;;;11.06;66.75;98961.53;6032376;23;20089;-70
2022/02/17 02:43:38;;;;;;;3.97;3.85;;;;;;;11.22;67.91;99027.56;5999675;23;20027;-70
2022/02/17 02:46:06;;;;;;;5.30;5.10;;;;;;;11.27;67.88;99037.72;6001381;23;20018;-70
2022/02/17 02:48:33;;;;;;;4.07;3.88;;;;;;;10.57;68.41;98976.84;5971109;23;20031;-70
2022/02/17 02:51:00;;;;;;;5.03;4.82;;;;;;;11.36;68.74;99086.84;6017435;23;20126;-70
2022/02/17 02:53:27;;;;;;;4.10;3.90;;;;;;;11.45;67.96;99124.69;5998717;23;20041;-70
2022/02/17 02:55:56;;;;;;;4.25;4.05;;;;;;;10.93;69.09;99059.63;6005636;23;20111;-70
2022/02/17 02:58:23;;;;;;;4.20;4.00;;;;;;;11.31;70.79;99126.63;6028935;23;20240;-70
2022/02/17 03:00:49;;;;;;;4.10;3.90;;;;;;;11.16;71.97;99164.59;5987369;23;20038;-71
2022/02/17 03:03:20;;;;;;;4.30;4.10;;;;;;;10.64;75.05;99111.78;6042546;23;20099;-70
2022/02/17 03:05:46;;;;;;;4.20;4.00;;;;;;;10.73;76.27;99191.59;5977462;23;20015;-70
2022/02/17 03:08:13;;;;;;;4.53;4.32;;;;;;;10.81;73.86;99197.09;6011607;23;20046;-70
2022/02/17 03:10:40;;;;;;;4.03;3.85;;;;;;;10.08;72.12;99075.88;5975624;23;20074;-70
2022/02/17 03:13:07;;;;;;;5.43;5.22;;;;;;;10.47;70.80;99122.78;5987136;23;20045;-71
2022/02/17 03:15:33;;;;;;;4.00;3.80;;;;;;;10.31;69.40;99083.78;6011357;23;20023;-71
2022/02/17 03:18:02;;;;;;;5.38;5.18;;;;;;;10.95;69.62;99222.25;6002207;23;20110;-70
2022/02/17 03:20:29;;;;;;;3.80;3.70;;;;;;;10.98;68.41;99235.13;6001664;23;20046;-70
2022/02/17 03:22:56;;;;;;;4.47;4.28;;;;;;;10.24;67.85;99101.72;5989677;23;20016;-70
2022/02/17 03:25:22;;;;;;;4.20;4.00;;;;;;;10.93;68.84;99224.16;6023159;23;21064;-70
2022/02/17 03:27:49;;;;;;;3.80;3.70;;;;;;;10.59;68.51;99174.28;6009224;23;20582;-70
2022/02/17 03:30:18;;;;;;;4.90;4.70;;;;;;;8.94;68.75;98956.03;6028815;23;20311;-70
2022/02/17 03:32:45;;;;;;;3.75;3.65;;;;;;;10.12;68.26;99106.13;6011546;23;20970;-71
2022/02/17 03:35:12;;;;;;;5.00;4.80;;;;;;;10.92;68.10;99243.47;5995785;23;20660;-70
2022/02/17 03:37:38;;;;;;;4.10;3.90;;;;;;;10.93;68.41;99276.66;6025092;23;20007;-70
2022/02/17 03:40:06;;;;;;;5.45;5.20;;;;;;;10.41;67.54;99212.41;6039157;23;20018;-70
2022/02/17 03:42:33;;;;;;;4.10;3.90;;;;;;;10.43;65.59;99192.97;6041652;23;20030;-70
2022/02/17 03:44:59;;;;;;;4.57;4.38;;;;;;;10.61;66.53;99227.47;6007427;23;20046;-70
2022/02/17 03:47:26;;;;;;;4.07;3.88;;;;;;;10.22;65.02;99187.50;6010638;23;20484;-70
2022/02/17 03:49:59;;;;;;;3.90;3.78;;;;;;;10.88;65.33;99305.03;6004286;23;20046;-70
2022/02/17 03:52:27;;;;;;;3.78;3.67;;;;;;;10.74;66.78;99316.56;6027973;23;20084;-71
2022/02/17 03:54:57;;;;;;;4.18;3.97;;;;;;;10.71;65.77;99296.66;5996106;23;20196;-70
2022/02/17 03:57:23;;;;;;;4.20;4.00;;;;;;;10.24;64.36;99258.19;6034623;23;20026;-71
2022/02/17 03:59:50;;;;;;;4.60;4.40;;;;;;;10.78;63.32;99329.38;5975634;23;20039;-70
2022/02/17 04:02:18;;;;;;;4.20;4.00;;;;;;;10.75;63.64;99326.97;6029816;23;21101;-70
2022/02/17 04:04:47;;;;;;;3.90;3.75;;;;;;;10.75;63.95;99315.63;6023936;23;20002;-70
2022/02/17 04:07:15;;;;;;;4.60;4.40;;;;;;;10.70;63.93;99328.25;6021758;23;20506;-70
2022/02/17 04:09:42;;;;;;;4.03;3.83;;;;;;;10.19;64.13;99261.16;6024783;23;20081;-69
2022/02/17 04:12:09;;;;;;;5.45;5.25;;;;;;;9.62;64.40;99176.19;5987783;23;20023;-71
2022/02/17 04:14:38;;;;;;;3.70;3.60;;;;;;;10.60;64.68;99338.59;6030848;23;20026;-69
2022/02/17 04:17:05;;;;;;;4.70;4.40;;;;;;;9.58;64.83;99190.47;6004777;23;20267;-70
2022/02/17 04:19:32;;;;;;;9.48;4.43;;;;;;;10.45;67.52;99344.97;5994147;23;20050;-71
2022/02/17 04:22:04;;;;;;;4.00;3.80;;;;;;;10.21;66.63;99324.81;6032357;23;20110;-70
2022/02/17 04:24:31;;;;;;;3.70;3.60;;;;;;;9.89;65.75;99261.63;6018833;23;20349;-70
2022/02/17 04:26:57;;;;;;;4.93;4.72;;;;;;;8.82;67.14;99113.88;5998138;23;20532;-71
2022/02/17 04:29:24;;;;;;;3.88;3.78;;;;;;;10.50;64.30;99366.44;6002311;23;20282;-70
2022/02/17 04:31:50;;;;;;;4.55;4.35;;;;;;;10.50;64.66;99358.59;6029782;23;20026;-70
2022/02/17 04:34:19;;;;;;;4.50;4.30;;;;;;;9.64;64.71;99239.81;5992271;23;20421;-69
2022/02/17 04:36:50;;;;;;;4.20;3.92;;;;;;;10.10;64.47;99332.59;5997935;23;20357;-70
2022/02/17 04:39:16;;;;;;;4.20;4.00;;;;;;;10.31;64.79;99366.97;6013479;23;20021;-70
2022/02/17 04:44:28;;;;;;;3.67;3.58;;;;;;;9.08;64.61;99202.75;6033992;23;20026;-70
2022/02/17 04:46:54;;;;;;;3.90;3.78;;;;;;;10.12;65.57;99389.25;5997867;23;20232;-70
2022/02/17 04:49:21;;;;;;;4.10;3.90;;;;;;;9.43;63.09;99265.72;6000698;23;20167;-70
2022/02/17 04:51:47;;;;;;;4.00;3.80;;;;;;;10.28;63.86;99422.22;6003462;23;20244;-70
2022/02/17 04:54:14;;;;;;;4.68;4.47;;;;;;;9.59;66.57;99334.41;6012610;23;20017;-70
2022/02/17 04:56:40;;;;;;;4.10;3.90;;;;;;;9.97;68.03;99450.59;5983460;23;20315;-69
2022/02/17 04:59:07;;;;;;;5.32;5.10;;;;;;;9.85;68.68;99427.88;6020509;23;20262;-70
2022/02/17 05:01:34;;;;;;;3.72;3.63;;;;;;;9.85;67.95;99444.41;5979239;23;20030;-70
2022/02/17 05:04:01;;;;;;;5.30;5.10;;;;;;;9.70;67.31;99400.94;6033064;23;20043;-70
2022/02/17 05:06:29;;;;;;;3.80;3.70;;;;;;;9.39;65.04;99338.41;6036825;23;20010;-70
2022/02/17 05:08:56;;;;;;;3.97;3.80;;;;;;;9.74;64.64;99408.50;6000068;23;20027;-70
2022/02/17 05:11:23;;;;;;;4.30;4.10;;;;;;;9.71;65.40;99407.88;6022284;23;20079;-70
2022/02/17 05:13:50;;;;;;;4.32;3.90;;;;;;;9.55;64.42;99382.72;6003262;23;20455;-69
2022/02/17 05:16:16;;;;;;;4.10;3.90;;;;;;;10.02;64.77;99461.59;6001583;23;20236;-69
2022/02/17 05:18:43;;;;;;;3.72;3.63;;;;;;;8.94;64.71;99308.38;6035972;23;20015;-70
2022/02/17 05:21:09;;;;;;;4.80;4.60;;;;;;;9.70;66.14;99448.94;6001416;23;20409;-70
2022/02/17 05:23:36;;;;;;;3.75;3.55;;;;;;;9.39;66.31;99390.78;5985223;23;20050;-69
2022/02/17 05:26:03;;;;;;;5.20;5.00;;;;;;;9.78;66.48;99469.34;5989217;23;20094;-69
2022/02/17 05:28:30;;;;;;;4.30;4.10;;;;;;;9.75;67.13;99472.19;6017004;23;20093;-71
2022/02/17 05:30:57;;;;;;;3.95;3.78;;;;;;;9.27;67.84;99440.53;6035805;23;20098;-70
2022/02/17 05:33:23;;;;;;;3.60;3.50;;;;;;;9.63;68.72;99505.31;6036914;23;20023;-70
2022/02/17 05:35:53;;;;;;;3.70;3.60;;;;;;;9.45;67.84;99464.66;6030133;23;20078;-70
2022/02/17 05:38:22;;;;;;;3.70;3.60;;;;;;;9.79;67.17;99484.16;6026548;23;20026;-69
2022/02/17 05:40:49;;;;;;;4.10;3.90;;;;;;;9.07;67.60;99408.66;6007598;23;20645;-70
2022/02/17 05:43:18;;;;;;;4.53;4.32;;;;;;;9.24;66.80;99398.84;6000902;23;20026;-70
2022/02/17 05:45:44;;;;;;;3.83;3.72;;;;;;;9.76;66.83;99505.31;6040006;23;20496;-70
2022/02/17 05:48:11;;;;;;;5.07;4.88;;;;;;;9.71;66.68;99503.00;6044406;23;20028;-70
2022/02/17 05:50:38;;;;;;;3.90;3.80;;;;;;;9.74;66.87;99494.09;6025360;23;20050;-70
2022/02/17 05:53:04;;;;;;;5.45;5.25;;;;;;;9.64;65.98;99479.94;5994122;23;20428;-70
2022/02/17 05:55:31;;;;;;;3.70;3.60;;;;;;;9.77;66.33;99541.06;6016115;23;20469;-70
2022/02/17 05:57:58;;;;;;;6.43;6.13;;;;;;;7.61;66.49;99202.97;6002279;23;20054;-70
2022/02/17 06:00:24;;;;;;;4.10;3.90;;;;;;;9.12;67.25;99453.72;6005828;23;20023;-70
2022/02/17 06:02:51;;;;;;;3.90;3.70;;;;;;;9.43;67.20;99514.50;5983476;23;20011;-70
2022/02/17 06:05:18;;;;;;;4.00;3.80;;;;;;;9.53;67.05;99531.28;6027374;23;20097;-70
2022/02/17 06:07:45;;;;;;;3.63;3.53;;;;;;;9.56;67.82;99574.75;6014595;23;20025;-69
2022/02/17 06:10:12;;;;;;;6.15;5.85;;;;;;;9.58;67.67;99562.38;6028403;23;20440;-70
2022/02/17 06:12:43;;;;;;;3.65;3.55;;;;;;;8.81;67.17;99448.81;5994905;23;20460;-69
2022/02/17 06:15:12;;;;;;;5.45;5.25;;;;;;;9.29;67.52;99544.22;6032198;23;20030;-69
2022/02/17 06:17:40;;;;;;;3.45;3.35;;;;;;;9.51;67.35;99587.31;6010043;23;20015;-70
2022/02/17 06:20:07;;;;;;;5.05;4.82;;;;;;;9.27;66.86;99542.63;6036427;23;20014;-69
2022/02/17 06:22:41;;;;;;;3.70;3.60;;;;;;;7.84;67.06;99360.78;5992653;23;20015;-71
2022/02/17 06:25:09;;;;;;;5.35;5.15;;;;;;;9.35;67.25;99600.56;5994950;23;20034;-70
2022/02/17 06:27:35;;;;;;;3.83;3.72;;;;;;;9.06;67.37;99552.69;6035799;23;20444;-69
2022/02/17 06:30:04;;;;;;;5.28;5.07;;;;;;;9.36;67.20;99608.34;5974817;23;20158;-70
2022/02/17 06:32:31;;;;;;;3.83;3.70;;;;;;;8.91;66.33;99512.66;6033224;23;20027;-70
2022/02/17 06:34:58;;;;;;;4.22;4.03;;;;;;;9.39;67.30;99612.53;5995006;23;20023;-70
2022/02/17 06:37:25;;;;;;;4.10;3.90;;;;;;;9.17;66.83;99579.88;6004689;23;20583;-71
2022/02/17 06:39:52;;;;;;;5.35;4.20;;;;;;;9.45;66.04;99647.97;6032000;23;20034;-69
2022/02/17 06:42:19;;;;;;;4.05;3.85;;;;;;;9.13;67.23;99607.19;6036680;23;20039;-70
2022/02/17 06:44:45;;;;;;;3.63;3.53;;;;;;;8.40;67.73;99487.09;5996903;23;20052;-70
2022/02/17 06:47:12;;;;;;;4.72;4.53;;;;;;;8.65;67.34;99543.94;6031462;23;20345;-70
2022/02/17 06:49:38;;;;;;;4.30;4.03;;;;;;;9.31;65.00;99641.81;5998662;23;20095;-71
2022/02/17 06:52:06;;;;;;;5.20;5.00;;;;;;;9.37;63.95;99677.25;6012428;23;20051;-71
2022/02/17 06:54:32;;;;;;;3.70;3.60;;;;;;;9.22;61.79;99602.28;6024263;23;20353;-70
2022/02/17 06:56:59;;;;;;;5.72;5.43;;;;;;;9.58;60.19;99648.81;5998037;23;20071;-71
2022/02/17 06:59:25;;;;;;;4.20;4.00;;;;;;;9.38;60.80;99645.75;6003821;23;20038;-70
2022/02/17 07:01:52;;;;;;;3.90;3.80;;;;;;;9.47;61.91;99688.81;6000574;23;20094;-70
2022/02/17 07:04:19;;;;;;;3.80;3.70;;;;;;;9.21;61.80;99651.19;6026710;23;20050;-71
2022/02/17 07:06:47;;;;;;;3.80;3.70;;;;;;;8.53;61.71;99535.06;6008087;23;20043;-70
2022/02/17 07:09:13;;;;;;;4.68;4.47;;;;;;;9.14;61.65;99653.38;6042997;23;20074;-70
2022/02/17 07:11:40;;;;;;;3.70;3.60;;;;;;;8.41;60.24;99561.13;6021634;23;20303;-70
2022/02/17 07:14:09;;;;;;;5.00;4.80;;;;;;;9.45;61.20;99722.13;6002188;23;20476;-70
2022/02/17 07:16:35;;;;;;;3.90;3.80;;;;;;;8.81;59.97;99614.44;6019143;23;20035;-69
2022/02/17 07:19:02;;;;;;;5.13;4.93;;;;;;;9.50;61.11;99734.91;6016342;23;20283;-70
2022/02/17 07:21:29;;;;;;;3.80;3.70;;;;;;;9.14;61.79;99689.16;6023766;23;20027;-70
2022/02/17 07:23:55;;;;;;;4.22;4.05;;;;;;;9.34;61.99;99729.78;5992485;23;20019;-69
2022/02/17 07:26:22;;;;;;;3.80;3.70;;;;;;;9.48;63.21;99748.13;6016509;23;20491;-70
2022/02/17 07:28:48;;;;;;;4.20;4.00;;;;;;;9.25;64.00;99731.22;6007020;23;20006;-70
2022/02/17 07:31:15;;;;;;;5.05;4.85;;;;;;;9.25;64.57;99741.69;6028408;23;20026;-70
2022/02/17 07:33:41;;;;;;;4.10;3.90;;;;;;;8.69;65.27;99646.59;6025600;23;20041;-70
2022/02/17 07:36:09;;;;;;;4.22;4.03;;;;;;;9.33;66.00;99793.59;5984848;23;20192;-71
2022/02/17 07:38:51;;;;;;;4.00;3.80;;;;;;;8.65;65.78;99632.03;6030298;23;20187;-71
2022/02/17 07:41:18;;;;;;;4.40;4.20;;;;;;;8.47;63.68;99647.06;6026229;23;20034;-70
2022/02/17 07:43:44;;;;;;;3.75;3.65;;;;;;;9.32;64.47;99776.19;5976235;23;20080;-71
2022/02/17 07:46:14;;;;;;;4.50;4.28;;;;;;;8.77;65.58;99681.81;6017458;23;20023;-70
2022/02/17 07:48:41;;;;;;;4.05;3.85;;;;;;;9.34;65.08;99810.97;5990781;23;20063;-70
2022/02/17 07:51:08;;;;;;;5.85;5.55;;;;;;;9.47;64.80;99822.38;5992159;23;20231;-70
2022/02/17 07:53:34;;;;;;;4.00;3.80;;;;;;;8.75;62.59;99686.28;5992003;23;20039;-70
2022/02/17 07:56:01;;;;;;;5.20;5.00;;;;;;;9.52;60.07;99796.75;5993575;23;20098;-70
2022/02/17 07:58:28;;;;;;;4.20;4.00;;;;;;;9.11;57.82;99746.94;6019426;23;20035;-69
2022/02/17 08:00:56;;;;;;;3.85;3.72;;;;;;;9.64;56.90;99807.38;6020133;23;20031;-69
2022/02/17 08:03:23;;;;;;;4.18;3.97;;;;;;;9.76;57.17;99846.78;6002175;23;20089;-69
2022/02/17 08:05:49;;;;;;;4.50;4.30;;;;;;;9.06;57.24;99728.91;5990431;23;20032;-70
2022/02/17 08:08:17;;;;;;;4.88;4.50;;;;;;;9.71;57.76;99842.75;6004090;23;20117;-70
2022/02/17 08:10:44;;;;;;;4.00;3.80;;;;;;;9.74;58.09;99837.31;5999353;23;20049;-70
2022/02/17 08:13:11;;;;;;;5.32;5.13;;;;;;;9.62;59.01;99830.22;6001759;23;20042;-70
2022/02/17 08:15:40;;;;;;;4.00;3.80;;;;;;;9.72;60.09;99857.53;6006282;23;20483;-70
2022/02/17 08:18:07;;;;;;;5.35;5.15;;;;;;;9.02;60.60;99753.59;5989808;23;20027;-71
2022/02/17 08:20:34;;;;;;;3.70;3.60;;;;;;;9.36;61.22;99804.72;5995734;23;20279;-70
2022/02/17 08:23:04;;;;;;;5.20;5.00;;;;;;;9.69;60.60;99855.13;5975010;23;20209;-70
2022/02/17 08:25:32;;;;;;;3.80;3.70;;;;;;;8.74;60.47;99718.63;6014486;23;20018;-72
2022/02/17 08:27:59;;;;;;;4.80;4.60;;;;;;;8.59;60.31;99701.22;5977560;23;20011;-70
2022/02/17 08:30:29;;;;;;;3.55;3.45;;;;;;;9.23;60.96;99813.41;6035160;23;20049;-72
2022/02/17 08:32:59;;;;;;;4.65;4.47;;;;;;;9.40;59.60;99797.50;6010915;23;20049;-70
2022/02/17 08:35:28;;;;;;;3.80;3.70;;;;;;;9.84;57.87;99882.13;5991219;23;20172;-69
2022/02/17 08:38:00;;;;;;;4.32;4.18;;;;;;;9.31;59.11;99830.34;6005423;23;20030;-69
2022/02/17 08:40:28;;;;;;;3.83;3.72;;;;;;;9.39;57.31;99822.00;5994030;23;20015;-72
2022/02/17 08:43:08;;;;;;;4.13;3.92;;;;;;;9.28;57.94;99793.88;6016968;23;20046;-71
2022/02/17 08:45:37;;;;;;;4.07;3.88;;;;;;;9.52;58.42;99832.56;6016293;23;20176;-71
2022/02/17 08:48:04;;;;;;;5.30;5.10;;;;;;;9.51;58.83;99823.03;6022562;23;20037;-69
2022/02/17 08:50:31;;;;;;;3.78;3.67;;;;;;;9.43;59.70;99823.50;6026689;23;20097;-69
2022/02/17 08:52:58;;;;;;;5.50;5.30;;;;;;;8.68;60.48;99695.47;6021105;23;20027;-69
2022/02/17 08:55:44;;;;;;;4.00;3.80;;;;;;;9.71;60.65;99926.59;6026212;23;20026;-69
2022/02/17 08:58:11;;;;;;;5.38;5.18;;;;;;;9.36;57.23;99815.19;6012071;23;20018;-71
2022/02/17 09:00:38;;;;;;;4.32;4.13;;;;;;;8.53;57.00;99717.28;5986939;23;20191;-70
2022/02/17 09:03:11;;;;;;;5.60;5.38;;;;;;;9.68;58.65;99875.25;6023250;23;20101;-70
2022/02/17 09:05:38;;;;;;;4.30;4.10;;;;;;;9.90;58.38;99937.66;6018734;23;20023;-70
2022/02/17 09:08:28;;;;;;;3.80;3.70;;;;;;;9.73;58.85;99919.50;5972692;23;20151;-70
2022/02/17 09:10:56;;;;;;;3.92;3.80;;;;;;;9.13;59.29;99782.56;6015060;23;20034;-72
2022/02/17 09:13:23;;;;;;;4.00;3.80;;;;;;;10.18;54.96;99968.25;5995094;23;20538;-70
2022/02/17 09:15:50;;;;;;;4.93;4.72;;;;;;;9.78;54.53;99904.31;6017889;23;20362;-70
2022/02/17 09:18:19;;;;;;;4.20;4.00;;;;;;;10.14;55.08;99977.25;6020433;23;20309;-70
2022/02/17 09:20:46;;;;;;;4.40;4.20;;;;;;;8.85;53.18;99779.94;6016146;23;20043;-70
2022/02/17 09:23:12;;;;;;;4.82;4.63;;;;;;;9.82;54.33;99970.47;5996670;23;20101;-69
2022/02/17 09:25:38;;;;;;;4.00;3.80;;;;;;;10.01;53.59;99941.38;6017159;23;20403;-70
2022/02/17 09:28:06;;;;;;;5.60;5.40;;;;;;;9.92;52.53;99996.06;5987308;23;21102;-69
2022/02/17 09:30:39;;;;;;;3.80;3.70;;;;;;;9.64;52.20;99948.84;6026081;23;20429;-70
2022/02/17 09:33:05;;;;;;;5.90;5.43;;;;;;;9.29;52.04;99855.78;5991090;23;20081;-70
2022/02/17 09:35:34;;;;;;;4.07;3.88;;;;;;;9.32;52.03;99935.91;6024631;23;20444;-70
2022/02/17 09:38:00;;;;;;;5.32;5.13;;;;;;;9.79;53.60;99993.31;6018823;23;20026;-70
2022/02/17 09:40:26;;;;;;;4.00;3.80;;;;;;;9.67;51.87;99967.03;5993552;23;20014;-69
2022/02/17 09:42:53;;;;;;;4.57;4.38;;;;;;;8.83;52.19;99850.66;5996436;23;20031;-70
2022/02/17 09:45:20;;;;;;;3.97;3.80;;;;;;;9.31;51.14;99929.00;6019886;23;20025;-69
2022/02/17 09:47:47;;;;;;;4.32;4.13;;;;;;;9.36;51.51;99940.03;5993721;23;20089;-70
2022/02/17 09:50:16;;;;;;;3.90;3.75;;;;;;;9.98;53.21;100050.72;6020751;23;20378;-71
2022/02/17 09:52:45;;;;;;;3.92;3.78;;;;;;;10.06;53.40;100058.09;5996021;23;20110;-70
2022/02/17 09:55:13;;;;;;;5.00;4.80;;;;;;;9.39;51.49;99979.13;5999347;23;20270;-70
2022/02/17 09:57:41;;;;;;;5.25;4.88;;;;;;;9.97;52.69;100058.69;5981953;23;20047;-70
2022/02/17 10:00:10;;;;;;;5.28;5.07;;;;;;;10.20;51.36;100080.88;6021568;23;20105;-70
2022/02/17 10:02:37;;;;;;;4.22;4.03;;;;;;;9.53;52.07;99934.63;5994147;23;20015;-70
2022/02/17 10:05:05;;;;;;;6.03;5.72;;;;;;;10.57;52.33;100073.41;6016759;23;20026;-70
2022/02/17 10:07:35;;;;;;;4.00;3.80;;;;;;;10.34;51.97;100057.34;6025411;23;20600;-70
2022/02/17 10:10:05;;;;;;;5.55;5.35;;;;;;;10.60;53.57;100073.22;5989915;23;20023;-69
2022/02/17 10:12:53;;;;;;;3.85;3.75;;;;;;;10.47;53.25;100094.13;6023304;23;20452;-69
2022/02/17 10:15:27;;;;;;;4.20;4.00;;;;;;;10.31;51.14;100056.66;5992627;23;20102;-69
2022/02/17 10:18:05;;;;;;;4.07;3.88;;;;;;;10.28;51.65;100026.19;6022243;23;20587;-69
2022/02/17 10:20:59;;;;;;;4.65;4.45;;;;;;;10.50;49.63;100099.19;5994282;23;20346;-69
2022/02/17 10:23:29;;;;;;;4.30;4.10;;;;;;;10.30;48.27;100107.41;5985262;23;20525;-68
2022/02/17 10:26:14;;;;;;;4.68;4.47;;;;;;;9.89;47.42;100048.66;6014583;23;20122;-70
2022/02/17 10:28:50;;;;;;;4.30;4.10;;;;;;;9.67;47.68;100063.97;6017172;23;20041;-69
2022/02/17 10:31:37;;;;;;;4.35;4.15;;;;;;;9.87;46.66;100094.25;6019521;23;20011;-69
2022/02/17 10:34:04;;;;;;;7.25;6.82;;;;;;;9.85;47.94;100131.00;5981516;23;20133;-72
2022/02/17 10:36:38;;;;;;;4.20;4.00;;;;;;;9.88;47.45;100138.72;6008768;23;20113;-70
2022/02/17 10:39:12;;;;;;;4.80;4.60;;;;;;;10.19;48.45;100136.91;5990646;23;20023;-70
2022/02/17 10:41:48;;;;;;;4.20;4.00;;;;;;;10.48;48.98;100147.44;6010130;23;20080;-70
2022/02/17 10:44:16;;;;;;;4.40;4.20;;;;;;;10.64;48.06;100142.94;6001053;23;20075;-69
2022/02/17 10:46:43;;;;;;;4.30;4.10;;;;;;;10.77;46.75;100140.41;6009484;23;20029;-69
2022/02/17 10:49:15;;;;;;;5.72;5.50;;;;;;;10.04;48.49;100082.75;6000967;23;20499;-69
2022/02/17 10:51:41;;;;;;;4.50;4.30;;;;;;;10.69;48.94;100171.53;5986046;23;20132;-70
2022/02/17 10:54:08;;;;;;;5.95;5.57;;;;;;;10.38;48.09;100186.50;6004008;23;20400;-70
2022/02/17 10:56:36;;;;;;;4.47;4.25;;;;;;;9.91;46.12;100103.59;5983211;23;20026;-70
2022/02/17 11:00:00;;;;;;;5.80;5.50;;;;;;;10.06;46.10;100159.50;6010692;23;20085;-69
2022/02/17 11:01:55;;;;;;;4.10;3.90;;;;;;;9.45;45.58;100046.03;6012759;23;20058;-69
2022/02/17 11:04:25;;;;;;;4.95;4.75;;;;;;;10.32;45.49;100158.00;6013022;23;20038;-72
2022/02/17 11:06:52;;;;;;;4.10;3.90;;;;;;;9.24;46.24;100063.81;6010255;23;20045;-69
2022/02/17 11:09:19;;;;;;;4.40;4.20;;;;;;;10.13;46.66;100174.81;5975213;23;20262;-70
2022/02/17 11:11:50;;;;;;;3.80;3.70;;;;;;;10.19;46.02;100186.72;6019676;23;20054;-69
2022/02/17 11:14:38;;;;;;;4.20;4.00;;;;;;;10.40;46.12;100196.91;6022496;23;21308;-69
2022/02/17 11:17:08;;;;;;;5.38;5.18;;;;;;;10.56;45.96;100193.28;5991489;23;20487;-69
2022/02/17 11:19:51;;;;;;;3.95;3.80;;;;;;;10.65;45.26;100197.13;5999374;23;20054;-69
2022/02/17 11:22:19;;;;;;;4.28;4.07;;;;;;;10.69;45.52;100205.66;5998333;23;20433;-68
2022/02/17 11:24:50;;;;;;;3.90;3.75;;;;;;;10.94;45.37;100207.63;6026879;23;20099;-69
2022/02/17 11:27:18;;;;;;;3.95;3.80;;;;;;;10.29;45.32;100124.91;6027719;23;20039;-68
2022/02/17 11:29:45;;;;;;;3.90;3.75;;;;;;;11.03;45.80;100207.06;6034803;23;20023;-68
2022/02/17 11:32:16;;;;;;;5.18;4.97;;;;;;;11.28;45.33;100189.75;6015796;23;20019;-68
2022/02/17 11:34:53;;;;;;;3.80;3.70;;;;;;;10.30;45.74;100047.09;5996560;23;20050;-68
2022/02/17 11:37:22;;;;;;;4.10;3.90;;;;;;;11.36;44.91;100177.81;6020568;23;20054;-70
2022/02/17 11:40:00;;;;;;;4.40;4.20;;;;;;;11.47;44.51;100178.94;6005514;23;20046;-69
2022/02/17 11:42:31;;;;;;;4.30;4.10;;;;;;;11.15;44.88;100150.31;6029228;23;20077;-69
2022/02/17 11:45:21;;;;;;;4.00;3.80;;;;;;;11.55;43.63;100182.75;6022215;23;20079;-69